Latest Weather Observations for Bradshaw

IDD60801

Issued at 11:01 am CST Monday 8 February 2016 (issued every 30 minutes, with the page automatically refreshed every 10 minutes)

About weather observations | Map of weather stations | Latest weather observations for NT | Other Formats
Station Details ID: 014954 Name: BRADSHAW Lat: -14.94 Lon: 130.81 Height: 75.0 m
Data from the previous 72 hours. | See also: Recent months at Bradshaw
Date/Time
CST
Temp
°C
App
Temp
°C
Dew
Point
Rel
Hum
%
Delta-T
°C
Wind Press
QNH
hPa
Press
MSL
hPa
Rain
since 9 am
mm
Dir
 
Spd
km/h
Gust
km/h
Spd
kts
Gust
kts
08/11:00am 33.3 37.9 24.7 60 6.1 W 9 15 5 8 1010.1 - 0.0
08/10:30am 33.0 37.6 24.7 61 5.9 SSW 9 15 5 8 1010.3 - 0.0
08/10:00am 32.0 37.2 25.1 67 4.9 SSW 7 13 4 7 1010.6 - 0.0
08/09:30am 31.2 36.7 25.3 71 4.2 SSW 6 13 3 7 1010.5 - 0.0
08/09:00am 30.3 35.9 24.9 73 3.8 ENE 4 7 2 4 1010.5 1009.9 0.2
08/08:30am 29.4 34.7 24.3 74 3.6 SSE 4 7 2 4 1010.2 - 0.2
08/08:00am 28.7 34.3 24.3 77 3.1 NNE 2 7 1 4 1010.1 - 0.2
08/07:30am 27.3 33.4 24.4 84 2.0 CALM 0 0 0 0 1009.7 - 0.2
08/07:00am 26.3 32.1 24.5 90 1.2 NNW 2 6 1 3 1009.5 - 0.2
08/06:30am 26.1 30.4 24.3 90 1.2 NNW 9 11 5 6 1009.5 - 0.2
08/06:00am 26.1 30.4 24.3 90 1.2 N 9 11 5 6 1009.2 1008.6 0.2
08/05:30am 26.3 30.6 24.3 89 1.4 N 9 11 5 6 1008.8 - 0.2
08/05:00am 26.5 30.8 24.3 88 1.5 N 9 13 5 7 1008.7 - 0.2
08/04:30am 26.6 31.0 24.4 88 1.5 NNW 9 11 5 6 1008.6 - 0.2
08/04:00am 26.7 31.5 24.4 87 1.6 NNW 7 9 4 5 1008.5 - 0.2
08/03:30am 26.9 31.7 24.2 85 1.9 N 6 9 3 5 1008.5 - 0.2
08/03:00am 27.2 31.9 24.3 84 2.0 NW 7 13 4 7 1008.3 1007.7 0.2
08/02:30am 27.6 31.7 24.0 81 2.5 NW 9 15 5 8 1008.4 - 0.2
08/02:00am 28.1 31.0 23.9 78 2.9 NNW 15 22 8 12 1008.6 - 0.2
08/01:30am 28.3 33.0 23.9 77 3.0 NW 6 11 3 6 1009.0 - 0.2
08/01:00am 29.1 34.1 23.8 73 3.7 WNW 4 13 2 7 1009.3 - 0.2
08/12:30am 28.9 32.7 24.0 75 3.4 NNW 11 19 6 10 1009.6 - 0.2
08/12:00am 29.3 32.8 24.2 74 3.6 NW 13 20 7 11 1009.9 1009.3 0.2
 
Date/Time
CST
Temp
°C
App
Temp
°C
Dew
Point
Rel
Hum
%
Delta-T
°C
Wind Press
QNH
hPa
Press
MSL
hPa
Rain
since 9 am
mm
Dir
 
Spd
km/h
Gust
km/h
Spd
kts
Gust
kts
07/11:30pm 29.2 33.6 24.5 76 3.3 NW 9 15 5 8 1010.0 - 0.2
07/11:00pm 29.4 33.7 24.3 74 3.6 NNW 9 17 5 9 1009.8 - 0.2
07/10:30pm 29.7 32.8 24.1 72 3.9 NNW 15 22 8 12 1009.5 - 0.2
07/10:00pm 29.7 34.7 24.8 75 3.4 NNE 7 9 4 5 1009.1 - 0.2
07/09:30pm 30.3 34.6 23.7 68 4.6 N 7 9 4 5 1008.7 - 0.2
07/09:00pm 30.6 35.1 24.0 68 4.6 NNW 7 9 4 5 1008.4 1007.8 0.2
07/08:30pm 30.8 34.8 23.7 66 4.9 NNW 9 13 5 7 1008.2 - 0.2
07/08:00pm 31.2 34.9 23.3 63 5.5 N 9 11 5 6 1007.7 - 0.2
07/07:30pm 32.1 35.6 22.8 58 6.4 N 9 11 5 6 1007.3 - 0.2
07/07:00pm 34.4 37.5 21.4 46 8.8 NW 7 9 4 5 1006.7 - 0.2
07/06:30pm 36.3 39.1 19.7 37 11.1 N 4 7 2 4 1006.3 - 0.2
07/06:00pm 36.6 38.5 18.6 34 11.9 E 6 9 3 5 1006.0 1005.5 0.2
07/05:30pm 35.7 37.9 19.2 38 10.9 NE 6 9 3 5 1005.7 - 0.2
07/05:00pm 36.5 38.4 19.0 35 11.6 NNW 7 13 4 7 1005.5 - 0.2
07/04:30pm 36.3 38.4 19.3 37 11.3 NW 7 11 4 6 1005.5 - 0.2
07/04:00pm 35.0 38.9 23.0 49 8.3 N 7 9 4 5 1005.8 - 0.2
07/03:30pm 32.5 37.3 24.5 62 5.6 N 7 9 4 5 1006.2 - 0.2
07/03:00pm 30.6 34.0 23.3 65 5.0 WNW 11 20 6 11 1006.3 1005.8 0.0
07/02:30pm 35.4 36.9 19.7 39 10.5 SSE 11 15 6 8 1006.5 - 0.0
07/02:00pm 36.2 37.1 18.3 34 11.7 SSW 11 17 6 9 1006.7 - 0.0
07/01:30pm 37.2 39.2 19.2 35 12.0 N 7 13 4 7 1007.2 - 0.0
07/01:00pm 36.6 38.2 18.2 34 12.1 E 7 13 4 7 1007.6 - 0.0
07/12:30pm 35.9 37.4 18.9 36 11.2 N 9 15 5 8 1008.0 - 0.0
07/12:00pm 35.5 39.7 22.4 46 9.1 W 4 11 2 6 1008.4 1007.8 0.0
07/11:30am 35.0 39.1 23.0 49 8.3 ENE 6 13 3 7 1008.8 - 0.0
07/11:00am 33.5 37.7 23.2 54 7.1 NW 6 11 3 6 1009.0 - 0.0
07/10:30am 33.0 37.6 24.2 60 6.2 SSW 7 9 4 5 1009.1 - 0.0
07/10:00am 32.2 37.2 24.8 65 5.2 SW 7 13 4 7 1009.3 - 0.0
07/09:30am 31.4 35.8 24.5 67 4.8 SW 9 15 5 8 1009.3 - 0.0
07/09:00am 30.8 35.6 24.4 68 4.5 W 7 11 4 6 1009.2 1008.6 0.2
07/08:30am 29.7 35.2 24.1 72 3.9 W 2 7 1 4 1009.0 - 0.2
07/08:00am 28.7 33.7 24.5 78 2.9 NW 6 9 3 5 1008.9 - 0.2
07/07:30am 27.9 33.4 24.7 83 2.2 N 4 7 2 4 1008.7 - 0.2
07/07:00am 26.7 31.8 24.7 89 1.4 N 6 7 3 4 1008.3 - 0.2
07/06:30am 26.6 31.5 24.6 89 1.4 N 7 9 4 5 1007.9 - 0.2
07/06:00am 26.6 31.4 24.4 88 1.5 NNW 7 9 4 5 1007.8 1007.2 0.2
07/05:30am 26.7 32.8 24.5 88 1.5 CALM 0 0 0 0 1007.6 - 0.2
07/05:00am 26.9 31.9 24.5 87 1.7 N 6 7 3 4 1007.4 - 0.2
07/04:30am 26.9 31.9 24.5 87 1.7 N 6 7 3 4 1007.2 - 0.2
07/04:00am 27.3 33.5 24.6 85 1.9 CALM 0 0 0 0 1007.0 - 0.2
07/03:30am 27.6 32.7 24.0 81 2.5 N 4 9 2 5 1007.0 - 0.2
07/03:00am 27.8 31.9 24.0 80 2.6 N 9 13 5 7 1007.2 1006.6 0.2
07/02:30am 28.4 32.9 24.0 77 3.0 NW 7 13 4 7 1007.3 - 0.2
07/02:00am 28.6 32.1 24.2 77 3.1 NNW 13 17 7 9 1007.4 - 0.2
07/01:30am 28.0 32.4 24.4 81 2.5 NNW 9 11 5 6 1007.8 - 0.2
07/01:00am 28.1 34.9 25.5 86 1.8 CALM 0 0 0 0 1007.9 - 0.2
07/12:30am 28.5 34.9 24.9 81 2.5 CALM 0 0 0 0 1008.1 - 0.2
07/12:00am 28.9 34.1 24.2 76 3.3 NNE 4 9 2 5 1008.3 1007.7 0.2
 
Date/Time
CST
Temp
°C
App
Temp
°C
Dew
Point
Rel
Hum
%
Delta-T
°C
Wind Press
QNH
hPa
Press
MSL
hPa
Rain
since 9 am
mm
Dir
 
Spd
km/h
Gust
km/h
Spd
kts
Gust
kts
06/11:30pm 29.4 33.4 23.1 69 4.3 NNW 7 9 4 5 1008.3 - 0.2
06/11:00pm 29.7 33.1 23.4 69 4.3 NNW 11 13 6 7 1008.4 - 0.2
06/10:30pm 29.9 34.9 24.5 73 3.8 NNW 6 7 3 4 1008.3 - 0.2
06/10:00pm 30.1 36.8 25.4 76 3.3 CALM 0 6 0 3 1008.1 - 0.2
06/09:30pm 30.3 37.0 25.4 75 3.5 CALM 0 0 0 0 1007.5 - 0.2
06/09:00pm 30.9 36.1 24.8 70 4.3 N 6 9 3 5 1007.2 1006.6 0.2
06/08:30pm 30.9 36.8 24.1 67 4.7 CALM 0 0 0 0 1006.6 - 0.2
06/08:00pm 31.2 35.5 23.3 63 5.5 W 6 9 3 5 1006.2 - 0.2
06/07:30pm 31.8 36.6 24.1 63 5.4 W 6 7 3 4 1005.8 - 0.2
06/07:00pm 32.5 36.9 23.4 58 6.3 S 6 13 3 7 1005.4 - 0.2
06/06:30pm 33.4 37.2 22.8 53 7.3 E 7 11 4 6 1005.1 - 0.2
06/06:00pm 34.2 36.8 21.9 48 8.4 E 11 15 6 8 1004.9 1004.4 0.2
06/05:30pm 34.5 37.1 21.9 48 8.6 ENE 11 17 6 9 1004.9 - 0.2
06/05:00pm 34.7 37.0 22.1 48 8.6 ENE 13 17 7 9 1004.7 - 0.2
06/04:30pm 36.1 37.5 19.5 37 11.1 WSW 11 15 6 8 1004.6 - 0.2
06/04:00pm 36.4 38.7 20.6 39 10.7 WSW 9 15 5 8 1004.8 - 0.2
06/03:30pm 35.9 38.8 21.0 42 10.1 SSW 7 17 4 9 1005.2 - 0.2
06/03:00pm 36.0 39.5 22.9 46 9.1 W 9 13 5 7 1005.4 1004.9 0.2
06/02:30pm 35.4 38.4 22.7 47 8.8 SSW 11 19 6 10 1005.9 - 0.2
06/02:00pm 34.7 37.9 22.4 48 8.5 W 9 13 5 7 1006.3 - 0.2
06/01:30pm 33.3 35.9 23.9 58 6.6 W 17 24 9 13 1007.0 - 0.2
06/01:00pm 34.4 38.3 24.3 55 7.1 WSW 11 17 6 9 1007.4 - 0.2
06/12:30pm 34.6 38.6 25.1 57 6.8 SW 13 19 7 10 1007.8 - 0.2
06/12:00pm 33.4 36.8 23.4 55 7.0 W 11 17 6 9 1008.1 1007.5 0.2
06/11:30am 33.1 37.2 24.6 61 6.0 WSW 11 17 6 9 1008.5 - 0.2
06/11:00am 32.8 37.6 25.1 64 5.5 SW 9 17 5 9 1008.6 - 0.2
06/10:30am 31.9 36.8 24.7 65 5.1 S 7 13 4 7 1008.8 - 0.2
06/10:00am 31.1 35.9 24.5 68 4.6 NW 7 13 4 7 1008.7 - 0.2
06/09:30am 30.2 35.0 24.4 71 4.1 NW 7 15 4 8 1008.8 - 0.2
06/09:00am 29.6 34.4 24.5 74 3.6 SW 7 13 4 7 1008.6 1008.0 1.4
06/08:30am 28.9 33.2 24.2 76 3.3 WSW 9 13 5 7 1008.5 - 1.4
06/08:00am 28.5 33.6 24.7 80 2.7 WSW 6 9 3 5 1008.4 - 1.4
06/07:30am 27.2 32.2 24.8 87 1.7 NNW 7 9 4 5 1008.2 - 1.4
06/07:00am 26.3 31.5 25.1 93 0.8 NW 7 9 4 5 1008.0 - 1.4
06/06:30am 25.9 32.1 25.2 96 0.5 N 2 7 1 4 1007.8 - 1.4
06/06:00am 26.0 32.5 25.0 94 0.7 CALM 0 0 0 0 1007.7 1007.1 1.4
06/05:30am 26.1 32.4 24.7 92 1.0 CALM 0 0 0 0 1007.5 - 1.4
06/05:00am 26.1 31.4 24.9 93 0.8 N 6 7 3 4 1007.3 - 1.4
06/04:30am 26.0 30.9 24.6 92 1.0 NNE 7 9 4 5 1007.1 - 1.4
06/04:00am 26.1 30.4 24.3 90 1.2 N 9 11 5 6 1006.9 - 1.4
06/03:30am 26.0 30.5 23.9 88 1.4 E 7 9 4 5 1007.1 - 1.4
06/03:00am 26.1 30.7 24.1 89 1.4 NNE 7 11 4 6 1007.0 1006.4 1.4
06/02:30am 26.2 30.8 24.2 89 1.4 WNW 7 7 4 4 1007.4 - 1.4
06/02:00am 26.1 30.0 24.3 90 1.2 N 11 19 6 10 1007.6 - 1.4
06/01:30am 26.2 30.5 24.2 89 1.4 NNW 9 13 5 7 1008.0 - 1.4
06/01:00am 26.4 30.3 24.8 91 1.1 NNW 13 19 7 10 1008.4 - 1.4
06/12:30am 26.7 30.1 24.7 89 1.4 N 15 19 8 10 1008.8 - 1.4
06/12:00am 27.8 32.3 24.0 80 2.6 N 7 11 4 6 1009.0 1008.4 0.2
 
Date/Time
CST
Temp
°C
App
Temp
°C
Dew
Point
Rel
Hum
%
Delta-T
°C
Wind Press
QNH
hPa
Press
MSL
hPa
Rain
since 9 am
mm
Dir
 
Spd
km/h
Gust
km/h
Spd
kts
Gust
kts
05/11:30pm 27.6 31.0 24.0 81 2.5 ENE 13 17 7 9 1009.3 - 0.2
05/11:00pm 27.8 31.3 23.6 78 2.9 E 11 17 6 9 1009.3 - 0.2
05/10:30pm 27.8 31.6 23.4 77 3.0 NE 9 13 5 7 1008.8 - 0.2
05/10:00pm 28.0 31.9 23.6 77 3.0 NE 9 13 5 7 1008.7 - 0.2
05/09:30pm 28.2 31.4 23.1 74 3.5 NNE 11 17 6 9 1008.4 - 0.2
05/09:00pm 28.9 32.9 23.8 74 3.5 NNE 9 13 5 7 1008.4 1007.8 0.2
05/08:30pm 29.5 32.9 23.4 69 4.2 NNW 11 15 6 8 1008.3 - 0.2
05/08:00pm 29.9 33.5 23.1 67 4.7 NW 9 15 5 8 1007.9 - 0.2
05/07:30pm 30.4 34.9 23.6 67 4.7 N 6 11 3 6 1007.1 - 0.2
05/07:00pm 30.2 35.1 23.1 65 4.9 W 2 7 1 4 1007.0 - 0.2
05/06:30pm 30.3 33.8 23.5 67 4.7 SW 11 17 6 9 1006.4 - 0.2
05/06:00pm 31.0 33.4 22.9 62 5.6 SSW 15 22 8 12 1005.8 1005.3 0.2
05/05:30pm 33.3 36.4 22.1 52 7.7 WSW 9 13 5 7 1005.2 - 0.2
05/05:00pm 33.3 34.2 20.8 48 8.4 S 17 20 9 11 1004.8 - 0.2
05/04:30pm 33.6 35.1 22.7 53 7.5 SE 19 28 10 15 1004.8 - 0.2
05/04:00pm 33.1 34.6 23.1 55 6.9 E 20 30 11 16 1004.8 - 0.2
05/03:30pm 36.8 40.9 23.3 46 9.4 SW 7 11 4 6 1004.9 - 0.2
05/03:00pm 35.4 38.6 23.0 48 8.6 SSE 11 17 6 9 1005.1 1004.6 0.2
05/02:30pm 35.3 39.0 22.6 47 8.8 SE 7 13 4 7 1005.6 - 0.2
05/02:00pm 34.8 38.1 23.2 51 8.1 SSE 11 17 6 9 1006.0 - 0.2
05/01:30pm 35.1 39.8 25.0 56 7.2 S 9 17 5 9 1006.6 - 0.2
05/01:00pm 34.0 39.1 24.6 58 6.6 S 6 11 3 6 1007.3 - 0.2
05/12:30pm 32.9 37.1 24.1 60 6.2 SSW 9 17 5 9 1007.7 - 0.2
05/12:00pm 32.5 37.3 24.5 62 5.6 SW 7 13 4 7 1008.2 1007.6 0.0
05/11:30am 32.6 37.9 25.2 65 5.3 SSW 7 15 4 8 1008.6 - 0.0

Other Formats:

Comma delimited format used in spreadsheet applications
http://www.bom.gov.au/fwo/IDD60801/IDD60801.94130.axf

JavaScript Object Notation format (JSON) in row-major order
http://www.bom.gov.au/fwo/IDD60801/IDD60801.94130.json